« Back
NWS Peachtree City, Ga » Text Product » MCN Terminal Aerodrome Forecast


Printer-friendly Version
Current Version              Previous Versions:   1  2  3  4  5  6  7  8  9  

Terminal Aerodrome Forecast

679
FTUS42 KFFC 211100
TAFMCN
TAF
KMCN 211133Z 2112/2212 00000KT 5SM BR SKC
      TEMPO 2112/2113 4SM BR
     FM211500 30005KT P6SM SKC
     FM211800 32008G14KT P6SM FEW030
     FM220000 32004KT P6SM SKC=

USA.gov is the U.S. government's official web portal to all federal, state and local government web resources and services.